Shreveport Regional Airport
KSHV : now visible

Airfield :











YOU CAN JOIN US ON...

 
LOGIN :

Register | Disclaimer

   EN    FR    IT 

 









Legend :    VFR   Marginal VFR   IFR   Intensive IFR   Very Intensive IFR
Visi :
Ceiling :
>= 8 km
>= 3000ft
5 to 8 km
1000 to 3000 ft
1500m to 5 km
500 to 1000 ft
800 to 1500m
200 to 500 ft
< 800m
< 200 ft
Symbols :   Thunderstorms  Fog  Heavy snow  Heavy precipitations  Wind > 20 kt






- Airport Elevation : 258 ft
- IATA code : SHV


KSHV - Shreveport Regional

CURRENT METAR :
  • 271456Z 06006KT 2SM BR OVC003 14/12 A3009 RMK AO2 SLP187 T01440122 53010

EXPIRED METARs :
  • 271356Z 07005KT 1SM BCFG OVC003 14/12 A3007 RMK AO2 SLP181 T01390122
  • 271256Z 03008KT 1SM BCFG OVC002 14/12 A3006 RMK AO2 SLP177 T01390122
  • 271238Z 04007KT 3/4SM BCFG OVC002 14/12 A3006 RMK AO2 T01390122

TAF KSHV
Valid from the 27 at 12:00 until the 28 at 12:00 UTC


271142Z 2712/2812 04006KT 4SM BR OVC006
TEMPO 2712/2716 2SM -DZ BR OVC003
FM271700 06008KT P6SM OVC010
FM272100 03010KT P6SM OVC025
FM280300 05007KT P6SM OVC015
FM280600 05007KT P6SM VCSH OVC007
FM281000 05007KT 3SM TSRA BR OVC007CB
KZFW FIR / North America



MET'MAP, your aeronautical weather chart ! - Copyright ORBIFLY December 2007 - Disclaimer

ORBIFLY MET'MAP TEAM :

Programming & Development : Alexandra Zaïnal
Concept & original design : Baudouin d'Aumeries
Assistance for programming : Marc-Olivier Méhu
Technical & hardware support : Manuel Goepfert

Contact : metmap@orbifly.com




SOURCES & CREDITS :

   NOAA       Earth
Advisory